Time;durP1;ratioP1;P1;durP2;ratioP2;P2;SDS_P1;SDS_P2;PMS_P1;PMS_P2;Temp;Humidity;BMP_temperature;BMP_pressure;BME280_temperature;BME280_humidity;BME280_pressure;Samples;Min_cycle;Max_cycle;Signal;HPM_P1;HPM_P2
2022/06/02 00:01:51;;;;;;;1.17;0.40;;;14.70;67.40;;;;;;4200468;28;20856;-73
2022/06/02 00:04:27;;;;;;;0.55;0.40;;;14.70;67.20;;;;;;4204904;28;20060;-73
2022/06/02 00:06:40;;;;;;;0.43;0.43;;;14.70;67.40;;;;;;4213086;28;20900;-73
2022/06/02 00:08:45;;;;;;;2.17;0.60;;;14.60;67.20;;;;;;4207767;28;20493;-74
2022/06/02 00:11:06;;;;;;;0.70;0.50;;;14.60;67.40;;;;;;4212443;28;20238;-73
2022/06/02 00:13:18;;;;;;;0.40;0.40;;;14.70;67.30;;;;;;4201281;28;20052;-73
2022/06/02 00:15:23;;;;;;;0.60;0.60;;;14.60;67.50;;;;;;4207709;28;20075;-73
2022/06/02 00:17:55;;;;;;;2.72;1.00;;;14.60;67.50;;;;;;4209103;28;20043;-73
2022/06/02 00:20:05;;;;;;;0.50;0.50;;;14.60;67.40;;;;;;4200956;28;20067;-73
2022/06/02 00:22:16;;;;;;;4.32;0.60;;;14.60;67.30;;;;;;4199165;28;20171;-73
2022/06/02 00:24:31;;;;;;;;;;;14.60;67.50;;;;;;4211068;28;20067;-72
2022/06/02 00:26:53;;;;;;;1.60;0.57;;;14.60;67.70;;;;;;4212138;28;19982;-73
2022/06/02 00:29:04;;;;;;;1.15;0.57;;;14.50;67.90;;;;;;4209006;28;20628;-73
2022/06/02 00:31:31;;;;;;;1.83;0.47;;;14.40;68.10;;;;;;4208493;28;20061;-72
2022/06/02 00:34:00;;;;;;;0.52;0.40;;;14.40;68.10;;;;;;4204605;28;20179;-73
2022/06/02 00:36:08;;;;;;;2.92;0.85;;;14.30;69.30;;;;;;4221686;28;20104;-73
2022/06/02 00:38:24;;;;;;;1.33;0.50;;;14.30;68.50;;;;;;4212154;28;20063;-73
2022/06/02 00:40:27;;;;;;;1.35;0.70;;;14.30;68.40;;;;;;4204804;28;20867;-73
2022/06/02 00:43:04;;;;;;;0.80;0.70;;;14.30;68.70;;;;;;4205953;28;20143;-73
2022/06/02 00:45:13;;;;;;;1.77;0.70;;;14.20;69.10;;;;;;4212684;28;20061;-73
2022/06/02 00:47:33;;;;;;;1.20;0.40;;;14.20;69.90;;;;;;4206130;28;20091;-73
2022/06/02 00:49:50;;;;;;;1.55;0.50;;;14.20;69.20;;;;;;4199299;28;20065;-73
2022/06/02 00:52:07;;;;;;;0.85;0.55;;;14.30;69.20;;;;;;4208452;28;20057;-73
2022/06/02 00:57:30;;;;;;;0.85;0.50;;;14.20;69.20;;;;;;4209121;28;20619;-73
2022/06/02 00:59:43;;;;;;;1.92;0.73;;;14.10;68.50;;;;;;4205438;28;20064;-73
2022/06/02 01:01:45;;;;;;;1.10;0.57;;;14.10;69.50;;;;;;4205131;28;20623;-72
2022/06/02 01:03:48;;;;;;;3.20;1.52;;;14.10;69.30;;;;;;4212179;28;20053;-72
2022/06/02 01:05:56;;;;;;;3.42;0.57;;;14.10;69.20;;;;;;4209590;28;20069;-72
2022/06/02 01:08:09;;;;;;;0.75;0.68;;;14.00;69.40;;;;;;4209328;28;20057;-73
2022/06/02 01:10:35;;;;;;;1.48;0.40;;;13.90;70.00;;;;;;4216120;28;20099;-72
2022/06/02 01:12:52;;;;;;;0.85;0.40;;;13.90;70.20;;;;;;4207190;28;20851;-72
2022/06/02 01:15:12;;;;;;;1.25;0.70;;;13.90;70.20;;;;;;4212508;28;20127;-73
2022/06/02 01:17:30;;;;;;;1.27;0.60;;;13.90;70.50;;;;;;4207216;28;20056;-73
2022/06/02 01:19:41;;;;;;;1.20;0.50;;;13.80;70.70;;;;;;4205524;28;20171;-73
2022/06/02 01:22:16;;;;;;;0.57;0.50;;;13.80;70.70;;;;;;4208704;28;20061;-72
2022/06/02 01:24:31;;;;;;;0.77;0.70;;;13.80;70.70;;;;;;4208994;28;20047;-73
2022/06/02 01:27:04;;;;;;;4.78;0.75;;;13.80;70.90;;;;;;4212917;28;20155;-72
2022/06/02 01:29:27;;;;;;;1.75;0.60;;;13.80;70.90;;;;;;4212422;28;20067;-72
2022/06/02 01:31:53;;;;;;;5.20;0.52;;;13.80;71.10;;;;;;4209822;28;20155;-73
2022/06/02 01:34:22;;;;;;;0.70;0.70;;;13.80;71.90;;;;;;4204123;28;20067;-73
2022/06/02 01:36:54;;;;;;;1.48;1.23;;;13.80;71.10;;;;;;4206326;28;20060;-72
2022/06/02 01:39:09;;;;;;;1.95;0.90;;;13.80;71.50;;;;;;4202656;28;20060;-72
2022/06/02 01:41:46;;;;;;;2.28;0.73;;;13.80;71.50;;;;;;4207117;28;20059;-73
2022/06/02 01:43:59;;;;;;;1.02;0.63;;;13.80;71.40;;;;;;4212645;28;20060;-72
2022/06/02 01:46:23;;;;;;;2.80;0.80;;;13.70;71.40;;;;;;4210242;28;20159;-73
2022/06/02 01:48:46;;;;;;;2.40;0.68;;;13.70;71.80;;;;;;4204349;28;20102;-72
2022/06/02 01:51:15;;;;;;;4.50;0.80;;;13.70;71.70;;;;;;4209478;28;20083;-74
2022/06/02 01:53:41;;;;;;;0.70;0.63;;;13.70;71.70;;;;;;4209326;28;20063;-73
2022/06/02 01:55:52;;;;;;;1.88;0.60;;;13.70;71.80;;;;;;4214602;28;20072;-72
2022/06/02 01:57:56;;;;;;;;;;;13.60;72.00;;;;;;4211841;28;20169;-73
2022/06/02 02:00:10;;;;;;;3.13;0.70;;;13.60;73.10;;;;;;4206206;28;20805;-73
2022/06/02 02:02:11;;;;;;;1.95;0.60;;;13.50;72.30;;;;;;4210795;28;20171;-72
2022/06/02 02:04:35;;;;;;;1.95;0.70;;;13.50;72.40;;;;;;4209623;28;20909;-73
2022/06/02 02:06:56;;;;;;;1.45;0.60;;;13.50;72.90;;;;;;4206788;28;20068;-73
2022/06/02 02:09:35;;;;;;;1.45;0.70;;;13.50;72.70;;;;;;4208447;28;20157;-73
2022/06/02 02:11:51;;;;;;;0.60;0.60;;;13.50;72.70;;;;;;4215216;28;20174;-72
2022/06/02 02:14:08;;;;;;;1.15;0.70;;;13.50;72.80;;;;;;4200998;28;20956;-73
2022/06/02 02:16:28;;;;;;;1.02;0.60;;;13.50;72.80;;;;;;4211643;28;20082;-73
2022/06/02 02:18:58;;;;;;;0.80;0.60;;;13.50;72.90;;;;;;4202524;28;20522;-73
2022/06/02 02:21:24;;;;;;;0.50;0.50;;;13.50;73.10;;;;;;4208321;28;20058;-73
2022/06/02 02:23:49;;;;;;;2.45;0.70;;;13.50;73.20;;;;;;4211114;28;20095;-73
2022/06/02 02:26:14;;;;;;;1.27;0.70;;;13.50;73.00;;;;;;4209168;28;20870;-74
2022/06/02 02:28:18;;;;;;;1.13;0.93;;;13.50;73.10;;;;;;4197580;28;20057;-73
2022/06/02 02:30:23;;;;;;;1.77;1.25;;;13.50;73.10;;;;;;4200354;28;20053;-73
2022/06/02 02:32:30;;;;;;;1.13;0.80;;;13.50;72.80;;;;;;4199680;28;20870;-73
2022/06/02 02:34:53;;;;;;;0.60;0.60;;;13.50;73.00;;;;;;4205524;28;20061;-73
2022/06/02 02:37:33;;;;;;;2.63;0.80;;;13.50;73.20;;;;;;4213179;28;20042;-73
2022/06/02 02:39:59;;;;;;;1.33;0.70;;;13.50;72.70;;;;;;4215118;28;20068;-73
2022/06/02 02:42:07;;;;;;;0.50;0.50;;;13.50;72.60;;;;;;4212513;28;20107;-73
2022/06/02 02:44:20;;;;;;;0.80;0.60;;;13.60;73.20;;;;;;4212462;28;20159;-74
2022/06/02 02:46:40;;;;;;;1.63;0.98;;;13.60;73.50;;;;;;4208434;28;20061;-73
2022/06/02 02:48:45;;;;;;;1.85;0.70;;;13.60;72.50;;;;;;4208433;28;20835;-74
2022/06/02 02:51:28;;;;;;;0.73;0.70;;;13.70;72.70;;;;;;4209352;28;20057;-73
2022/06/02 02:53:56;;;;;;;0.98;0.50;;;13.70;73.10;;;;;;4205880;28;20171;-73
2022/06/02 02:56:09;;;;;;;2.15;0.68;;;13.60;72.90;;;;;;4206275;28;20060;-73
2022/06/02 02:58:28;;;;;;;0.73;0.70;;;13.60;72.60;;;;;;4214069;28;20142;-73
2022/06/02 03:00:43;;;;;;;1.85;0.65;;;13.60;72.20;;;;;;4207025;28;20060;-73
2022/06/02 03:03:17;;;;;;;2.80;0.98;;;13.60;71.80;;;;;;4206586;28;20079;-73
2022/06/02 03:05:39;;;;;;;2.45;0.70;;;13.50;72.00;;;;;;4212138;28;20056;-73
2022/06/02 03:07:40;;;;;;;0.80;0.70;;;13.50;72.10;;;;;;4208505;28;20245;-73
2022/06/02 03:10:00;;;;;;;2.08;0.90;;;13.40;72.50;;;;;;4202840;28;20160;-73
2022/06/02 03:12:09;;;;;;;0.97;0.60;;;13.40;72.40;;;;;;4211122;28;21010;-73
2022/06/02 03:14:31;;;;;;;0.82;0.60;;;13.30;72.60;;;;;;4205776;28;20465;-73
2022/06/02 03:16:37;;;;;;;0.57;0.50;;;13.30;72.80;;;;;;4213186;28;20060;-73
2022/06/02 03:19:07;;;;;;;2.22;0.80;;;13.30;73.40;;;;;;4209567;28;20057;-73
2022/06/02 03:21:34;;;;;;;1.88;0.95;;;13.30;73.30;;;;;;4184468;28;20060;-73
2022/06/02 03:23:54;;;;;;;1.30;0.90;;;13.30;73.20;;;;;;4206669;28;20060;-73
2022/06/02 03:26:06;;;;;;;1.27;1.00;;;13.40;73.00;;;;;;4210679;28;20066;-73
2022/06/02 03:28:20;;;;;;;4.28;0.82;;;13.40;72.70;;;;;;4210810;28;20061;-73
2022/06/02 03:30:24;;;;;;;2.67;1.30;;;13.40;72.60;;;;;;4212293;28;20053;-73
2022/06/02 03:32:48;;;;;;;1.75;0.98;;;13.50;73.10;;;;;;4206981;28;20836;-73
2022/06/02 03:34:56;;;;;;;3.03;1.10;;;13.50;72.40;;;;;;4206697;28;20069;-73
2022/06/02 03:37:16;;;;;;;2.30;0.90;;;13.40;72.80;;;;;;4205419;28;20061;-74
2022/06/02 03:39:29;;;;;;;1.92;1.45;;;13.50;73.00;;;;;;4211340;28;20063;-73
2022/06/02 03:41:48;;;;;;;2.10;1.05;;;13.50;73.10;;;;;;4209356;28;20064;-73
2022/06/02 03:44:21;;;;;;;0.80;0.70;;;13.50;72.30;;;;;;4212910;28;20095;-73
2022/06/02 03:46:23;;;;;;;1.50;0.70;;;13.50;71.90;;;;;;4197940;28;20631;-73
2022/06/02 03:48:59;;;;;;;0.95;0.70;;;13.40;72.10;;;;;;4212668;28;20095;-73
2022/06/02 03:51:21;;;;;;;1.95;1.10;;;13.40;72.80;;;;;;4211366;28;20154;-72
2022/06/02 03:53:31;;;;;;;1.42;0.85;;;13.40;72.40;;;;;;4204440;28;20115;-74
2022/06/02 03:55:48;;;;;;;2.28;1.23;;;13.40;72.80;;;;;;4206386;28;20104;-73
2022/06/02 03:58:27;;;;;;;1.42;1.10;;;13.30;72.70;;;;;;4207491;28;20056;-73
2022/06/02 04:00:49;;;;;;;2.67;0.93;;;13.30;72.90;;;;;;4209977;28;20278;-73
2022/06/02 04:03:14;;;;;;;1.77;1.17;;;13.30;72.90;;;;;;4205271;28;20864;-73
2022/06/02 04:05:37;;;;;;;3.75;1.02;;;13.30;72.70;;;;;;4209025;28;20068;-74
2022/06/02 04:07:51;;;;;;;1.38;0.82;;;13.20;72.80;;;;;;4210815;28;20064;-73
2022/06/02 04:10:32;;;;;;;0.70;0.70;;;13.20;72.90;;;;;;4199158;28;20568;-73
2022/06/02 04:15:21;;;;;;;1.15;0.77;;;13.20;73.30;;;;;;4211927;28;20059;-73
2022/06/02 04:17:35;;;;;;;1.05;0.85;;;13.30;73.40;;;;;;4208959;28;20900;-74
2022/06/02 04:22:52;;;;;;;1.15;0.70;;;13.30;72.80;;;;;;4208044;28;20053;-74
2022/06/02 04:25:26;;;;;;;2.22;0.70;;;13.40;72.80;;;;;;4214017;28;20092;-73
2022/06/02 04:28:01;;;;;;;2.55;1.13;;;13.40;72.80;;;;;;4208115;28;20061;-73
2022/06/02 04:30:09;;;;;;;2.33;0.98;;;13.40;72.90;;;;;;4211653;28;20166;-73
2022/06/02 04:32:17;;;;;;;1.08;0.70;;;13.30;73.20;;;;;;4210585;28;20056;-73
2022/06/02 04:34:49;;;;;;;1.65;1.30;;;13.30;73.20;;;;;;4209110;28;20156;-73
2022/06/02 04:37:31;;;;;;;2.70;1.30;;;13.30;73.00;;;;;;4203820;28;20081;-73
2022/06/02 04:40:08;;;;;;;0.88;0.70;;;13.30;73.30;;;;;;4206423;28;20179;-73
2022/06/02 04:42:23;;;;;;;1.30;1.20;;;13.20;73.80;;;;;;4204670;28;20171;-74
2022/06/02 04:44:43;;;;;;;0.88;0.80;;;13.30;73.80;;;;;;4199470;28;20064;-73
2022/06/02 04:46:59;;;;;;;1.60;0.82;;;13.30;73.80;;;;;;4212524;28;20049;-73
2022/06/02 04:49:10;;;;;;;4.63;1.17;;;13.20;73.70;;;;;;4217094;28;20087;-73
2022/06/02 04:51:26;;;;;;;1.02;0.80;;;13.20;73.80;;;;;;4213527;28;20075;-73
2022/06/02 04:53:55;;;;;;;1.95;0.70;;;13.20;73.90;;;;;;4211225;28;20095;-74
2022/06/02 04:56:28;;;;;;;2.42;1.15;;;13.30;73.80;;;;;;4208767;28;20102;-73
2022/06/02 04:59:03;;;;;;;2.92;1.25;;;13.40;73.70;;;;;;4213535;28;20171;-73
2022/06/02 05:01:17;;;;;;;1.75;0.75;;;13.40;73.70;;;;;;4211913;28;20057;-74
2022/06/02 05:03:44;;;;;;;3.05;1.67;;;13.60;73.40;;;;;;4208609;28;20122;-73
2022/06/02 05:05:57;;;;;;;1.20;1.00;;;13.60;73.50;;;;;;4221504;22;20163;-76
2022/06/02 05:08:06;;;;;;;2.17;0.88;;;13.60;74.00;;;;;;4196032;28;20061;-76
2022/06/02 05:10:38;;;;;;;2.53;1.20;;;13.70;72.90;;;;;;4198447;28;20753;-75
2022/06/02 05:13:06;;;;;;;6.13;1.33;;;13.90;72.20;;;;;;4197680;28;20061;-75
2022/06/02 05:15:39;;;;;;;1.25;1.00;;;13.90;71.60;;;;;;4199338;28;20152;-77
2022/06/02 05:18:01;;;;;;;2.90;1.40;;;14.00;71.00;;;;;;4197607;28;20061;-76
2022/06/02 05:20:50;;;;;;;4.28;0.80;;;14.00;71.10;;;;;;4198843;28;20068;-75
2022/06/02 05:23:00;;;;;;;11.10;1.13;;;14.10;71.10;;;;;;4189879;28;20160;-77
2022/06/02 05:25:33;;;;;;;2.15;1.17;;;14.20;71.40;;;;;;4196751;28;20871;-78
2022/06/02 05:27:54;;;;;;;3.03;0.98;;;14.40;71.40;;;;;;4198209;28;20100;-79
2022/06/02 05:30:08;;;;;;;;;;;14.60;69.70;;;;;;4200208;28;20041;-76
2022/06/02 05:32:20;;;;;;;1.58;0.77;;;14.70;68.40;;;;;;4199371;28;19936;-78
2022/06/02 05:34:45;;;;;;;2.97;1.02;;;14.80;67.30;;;;;;4200825;28;20063;-78
2022/06/02 05:37:05;;;;;;;1.80;1.27;;;14.90;67.30;;;;;;4194061;28;20053;-79
2022/06/02 05:39:19;;;;;;;2.33;1.17;;;14.90;66.80;;;;;;4197801;28;21106;-79
2022/06/02 05:41:33;;;;;;;1.60;0.93;;;14.90;66.50;;;;;;4198633;28;20188;-78
2022/06/02 05:44:04;;;;;;;1.98;0.80;;;14.90;66.50;;;;;;4200694;28;20061;-79
2022/06/02 05:46:27;;;;;;;0.80;0.80;;;15.00;66.40;;;;;;4182989;28;20061;-78
2022/06/02 05:48:51;;;;;;;2.30;0.90;;;15.10;65.60;;;;;;4200280;28;20045;-78
2022/06/02 05:51:13;;;;;;;1.35;1.00;;;15.10;65.60;;;;;;4194388;28;20064;-78
2022/06/02 05:54:06;;;;;;;1.40;1.00;;;15.10;66.10;;;;;;4184331;28;20859;-79
2022/06/02 05:56:16;;;;;;;2.55;1.13;;;15.30;65.80;;;;;;4180690;28;20876;-78
2022/06/02 05:58:39;;;;;;;2.22;1.17;;;15.50;65.40;;;;;;4199985;28;20799;-79
2022/06/02 06:00:56;;;;;;;1.52;0.95;;;15.60;64.30;;;;;;4207602;28;20111;-78
2022/06/02 06:03:34;;;;;;;1.58;1.00;;;15.60;63.90;;;;;;4195493;28;20053;-79
2022/06/02 06:06:00;;;;;;;1.27;0.90;;;15.80;63.90;;;;;;4198543;28;20053;-79
2022/06/02 06:08:32;;;;;;;1.08;0.95;;;15.90;63.00;;;;;;4200902;28;20045;-78
2022/06/02 06:11:05;;;;;;;2.15;1.20;;;16.00;62.30;;;;;;4197105;28;20057;-77
2022/06/02 06:13:23;;;;;;;1.42;1.00;;;15.90;62.00;;;;;;4198725;28;20053;-79
2022/06/02 06:15:50;;;;;;;2.28;0.73;;;15.60;62.70;;;;;;4196371;28;20064;-78
2022/06/02 06:18:05;;;;;;;1.20;1.10;;;15.50;63.20;;;;;;4199295;28;20158;-78
2022/06/02 06:20:35;;;;;;;1.10;1.00;;;15.50;63.20;;;;;;4198495;28;20072;-79
2022/06/02 06:22:39;;;;;;;2.03;1.05;;;15.60;63.90;;;;;;4192229;28;20099;-79
2022/06/02 06:24:44;;;;;;;9.00;1.38;;;15.80;63.70;;;;;;4200711;28;20785;-79
2022/06/02 06:27:16;;;;;;;1.73;1.15;;;16.10;63.00;;;;;;4200375;28;20107;-79
2022/06/02 06:29:44;;;;;;;1.10;0.98;;;16.30;61.50;;;;;;4196218;28;20067;-78
2022/06/02 06:32:11;;;;;;;2.13;0.93;;;16.20;61.20;;;;;;4176206;28;20083;-78
2022/06/02 06:34:27;;;;;;;1.30;0.70;;;16.30;61.10;;;;;;4195059;28;20049;-79
2022/06/02 06:36:38;;;;;;;1.55;0.95;;;16.40;60.50;;;;;;4195582;28;20060;-79
2022/06/02 06:38:52;;;;;;;7.85;1.30;;;16.50;60.60;;;;;;4196824;28;20814;-78
2022/06/02 06:41:48;;;;;;;2.45;1.02;;;16.60;60.50;;;;;;4198918;28;20056;-79
2022/06/02 06:44:10;;;;;;;2.20;1.05;;;16.70;59.10;;;;;;4153384;28;20889;-78
2022/06/02 06:46:25;;;;;;;1.00;0.95;;;16.70;60.00;;;;;;4197440;28;20864;-78
2022/06/02 06:48:35;;;;;;;4.78;1.15;;;16.70;60.90;;;;;;4190188;28;20061;-77
2022/06/02 06:51:09;;;;;;;5.25;1.05;;;16.80;59.30;;;;;;4195653;28;20056;-78
2022/06/02 06:53:29;;;;;;;1.52;0.80;;;16.80;59.40;;;;;;4193001;28;20068;-78
2022/06/02 06:55:59;;;;;;;2.67;1.15;;;16.70;59.30;;;;;;4197039;28;20083;-77
2022/06/02 06:58:19;;;;;;;1.17;1.08;;;16.70;59.50;;;;;;4200088;28;20083;-78
2022/06/02 07:00:33;;;;;;;2.45;1.08;;;16.90;59.10;;;;;;4197543;28;20176;-77
2022/06/02 07:02:40;;;;;;;3.63;1.98;;;17.00;58.50;;;;;;4192165;28;20776;-79
2022/06/02 07:05:01;;;;;;;4.97;1.08;;;17.00;59.20;;;;;;4198750;28;20195;-80
2022/06/02 07:07:27;;;;;;;5.30;1.13;;;17.00;58.70;;;;;;4196277;28;20092;-77
2022/06/02 07:10:19;;;;;;;1.35;0.70;;;17.00;59.20;;;;;;4196081;28;20048;-77
2022/06/02 07:12:52;;;;;;;3.80;0.90;;;17.00;59.00;;;;;;4129584;28;20063;-77
2022/06/02 07:15:18;;;;;;;1.63;0.90;;;17.00;59.90;;;;;;4131659;28;20134;-78
2022/06/02 07:17:31;;;;;;;1.50;0.98;;;17.10;59.30;;;;;;4161470;28;20057;-78
2022/06/02 07:20:05;;;;;;;2.55;0.80;;;17.10;58.80;;;;;;4196280;28;20041;-78
2022/06/02 07:22:31;;;;;;;5.00;0.93;;;17.00;58.60;;;;;;4197240;28;20071;-79
2022/06/02 07:24:52;;;;;;;2.10;0.85;;;17.00;60.00;;;;;;4197822;28;20061;-79
2022/06/02 07:27:22;;;;;;;1.50;0.82;;;17.00;60.50;;;;;;4195204;28;20059;-78
2022/06/02 07:29:44;;;;;;;2.88;1.08;;;16.90;59.60;;;;;;4196507;28;20134;-78
2022/06/02 07:32:02;;;;;;;1.73;1.00;;;16.90;60.70;;;;;;4198356;28;20057;-78
2022/06/02 07:34:22;;;;;;;2.92;0.80;;;16.90;59.70;;;;;;4196013;28;20060;-77
2022/06/02 07:37:01;;;;;;;1.77;0.98;;;17.00;60.00;;;;;;4193164;28;20053;-77
2022/06/02 07:39:15;;;;;;;3.15;0.70;;;17.00;59.60;;;;;;4185147;28;20057;-80
2022/06/02 07:41:45;;;;;;;4.28;0.80;;;17.00;59.20;;;;;;4195813;28;20092;-79
2022/06/02 07:43:53;;;;;;;1.05;0.95;;;17.10;59.30;;;;;;4194380;28;20045;-79
2022/06/02 07:46:09;;;;;;;2.25;1.17;;;17.30;59.40;;;;;;4190892;28;20057;-78
2022/06/02 07:48:14;;;;;;;5.43;0.90;;;17.30;59.40;;;;;;4196289;28;20980;-78
2022/06/02 07:50:22;;;;;;;4.18;0.93;;;17.40;59.10;;;;;;4198399;28;20887;-79
2022/06/02 07:52:33;;;;;;;1.67;1.13;;;17.50;59.60;;;;;;4197288;28;20800;-78
2022/06/02 07:54:57;;;;;;;2.10;1.08;;;17.50;58.50;;;;;;4198071;28;20068;-78
2022/06/02 07:57:35;;;;;;;1.10;1.00;;;17.40;58.40;;;;;;4196756;28;20064;-77
2022/06/02 07:59:45;;;;;;;3.13;1.05;;;17.50;57.80;;;;;;4195102;28;21363;-77
2022/06/02 08:01:53;;;;;;;4.00;0.70;;;17.60;59.00;;;;;;4190462;28;20053;-77
2022/06/02 08:04:21;;;;;;;3.55;1.60;;;17.60;58.00;;;;;;4196471;28;20061;-78
2022/06/02 08:06:44;;;;;;;2.28;1.23;;;17.50;58.00;;;;;;4211715;28;20642;-78
2022/06/02 08:09:21;;;;;;;2.88;0.88;;;17.40;58.20;;;;;;4188749;28;20057;-77
2022/06/02 08:11:58;;;;;;;1.25;1.00;;;17.50;58.60;;;;;;4186286;28;20061;-77
2022/06/02 08:14:11;;;;;;;0.88;0.82;;;17.60;58.50;;;;;;4195474;28;20052;-77
2022/06/02 08:16:31;;;;;;;5.28;0.80;;;17.70;58.50;;;;;;4199645;28;20067;-77
2022/06/02 08:18:46;;;;;;;1.13;0.57;;;17.80;58.30;;;;;;4201475;28;20057;-78
2022/06/02 08:21:15;;;;;;;0.75;0.75;;;17.90;58.20;;;;;;4193038;28;20061;-79
2022/06/02 08:23:25;;;;;;;1.30;0.70;;;17.90;57.70;;;;;;4196945;28;20148;-79
2022/06/02 08:25:39;;;;;;;1.20;0.70;;;17.80;57.70;;;;;;4199033;28;20057;-77
2022/06/02 08:28:18;;;;;;;1.73;0.70;;;17.90;58.60;;;;;;4198794;28;20063;-79
2022/06/02 08:30:34;;;;;;;3.75;0.70;;;18.00;58.00;;;;;;4199787;28;20776;-78
2022/06/02 08:32:47;;;;;;;1.13;0.88;;;18.10;58.10;;;;;;4199605;28;20061;-77
2022/06/02 08:35:23;;;;;;;2.67;1.02;;;18.20;56.90;;;;;;4197096;28;20056;-77
2022/06/02 08:37:42;;;;;;;4.53;0.88;;;18.30;56.40;;;;;;4198337;28;20064;-79
2022/06/02 08:40:19;;;;;;;4.07;1.08;;;18.50;56.90;;;;;;4197786;28;20878;-78
2022/06/02 08:42:53;;;;;;;1.20;0.70;;;18.50;56.30;;;;;;4196495;28;20068;-79
2022/06/02 08:45:20;;;;;;;1.45;0.98;;;18.40;57.00;;;;;;4198733;28;20061;-78
2022/06/02 08:47:35;;;;;;;2.17;0.95;;;18.40;55.30;;;;;;4200174;28;20910;-77
2022/06/02 08:50:28;;;;;;;2.58;1.10;;;18.30;56.60;;;;;;4200632;28;20049;-77
2022/06/02 08:53:03;;;;;;;1.05;0.90;;;18.30;56.10;;;;;;4165525;28;20057;-77
2022/06/02 08:55:26;;;;;;;2.42;0.88;;;18.30;56.20;;;;;;4196717;28;20850;-78
2022/06/02 08:58:38;;;;;;;2.05;0.80;;;18.50;56.20;;;;;;4197557;28;20182;-76
2022/06/02 09:01:30;;;;;;;1.08;0.90;;;18.50;55.80;;;;;;4189007;28;20056;-78
2022/06/02 09:03:55;;;;;;;1.73;0.82;;;18.50;55.80;;;;;;4178359;28;20084;-77
2022/06/02 09:06:12;;;;;;;2.45;0.70;;;18.60;56.60;;;;;;4199171;28;20061;-79
2022/06/02 09:08:48;;;;;;;7.43;0.85;;;18.60;56.30;;;;;;4199773;28;20041;-78
2022/06/02 09:11:18;;;;;;;1.77;0.93;;;18.80;55.90;;;;;;4197128;28;20088;-78
2022/06/02 09:13:44;;;;;;;2.30;1.02;;;18.80;54.50;;;;;;4199390;28;20061;-78
2022/06/02 09:16:10;;;;;;;3.00;1.13;;;18.70;55.40;;;;;;4214243;28;20174;-78
2022/06/02 09:18:40;;;;;;;1.58;0.70;;;18.70;56.60;;;;;;4197615;28;20095;-78
2022/06/02 09:21:14;;;;;;;0.80;0.60;;;18.80;55.80;;;;;;4196424;28;20060;-79
2022/06/02 09:23:16;;;;;;;1.67;0.98;;;18.90;56.20;;;;;;4198697;28;20615;-78
2022/06/02 09:25:42;;;;;;;2.08;0.90;;;19.20;55.90;;;;;;4198988;28;20143;-78
2022/06/02 09:28:04;;;;;;;1.00;0.65;;;19.20;54.10;;;;;;4186882;28;20068;-79
2022/06/02 09:30:18;;;;;;;1.15;0.60;;;19.20;54.50;;;;;;4198964;28;20052;-78
2022/06/02 09:32:30;;;;;;;0.80;0.70;;;19.30;55.70;;;;;;4199475;28;20057;-78
2022/06/02 09:35:01;;;;;;;0.60;0.60;;;19.30;55.70;;;;;;4193257;28;20799;-79
2022/06/02 09:37:21;;;;;;;2.72;0.80;;;19.40;55.40;;;;;;4196097;28;20056;-78
2022/06/02 09:39:38;;;;;;;4.70;1.25;;;19.30;54.30;;;;;;4195971;28;20163;-78
2022/06/02 09:41:51;;;;;;;1.40;0.85;;;19.40;54.60;;;;;;4195246;28;20811;-79
2022/06/02 09:44:23;;;;;;;5.20;1.23;;;19.40;54.70;;;;;;4199458;28;20096;-78
2022/06/02 09:46:51;;;;;;;1.30;0.73;;;19.50;54.80;;;;;;4199535;28;20071;-78
2022/06/02 09:49:11;;;;;;;1.25;0.60;;;19.60;52.70;;;;;;4198911;28;20057;-78
2022/06/02 09:51:47;;;;;;;4.05;0.82;;;19.60;53.30;;;;;;4196895;28;20871;-77
2022/06/02 09:54:26;;;;;;;1.85;0.73;;;19.80;54.60;;;;;;4194184;28;20061;-77
2022/06/02 09:56:40;;;;;;;1.10;0.65;;;19.90;54.30;;;;;;4198848;28;20160;-77
2022/06/02 09:58:48;;;;;;;2.45;0.75;;;20.00;53.60;;;;;;4198774;28;20065;-77
2022/06/02 10:00:55;;;;;;;0.95;0.73;;;19.90;53.50;;;;;;4202040;28;20060;-78
2022/06/02 10:03:16;;;;;;;2.25;0.93;;;19.80;53.00;;;;;;4192160;28;20057;-76
2022/06/02 10:05:55;;;;;;;3.10;0.80;;;19.80;54.50;;;;;;4192722;28;20055;-78
2022/06/02 10:08:09;;;;;;;2.50;0.95;;;20.00;52.80;;;;;;4191032;28;20057;-77
2022/06/02 10:10:11;;;;;;;3.63;1.10;;;20.10;53.50;;;;;;4195881;28;20856;-78
2022/06/02 10:13:00;;;;;;;0.60;0.60;;;20.00;52.20;;;;;;4195082;28;20899;-78
2022/06/02 10:15:39;;;;;;;2.55;0.80;;;20.10;52.60;;;;;;4106914;28;20138;-78
2022/06/02 10:17:52;;;;;;;3.75;0.77;;;20.00;53.40;;;;;;4194019;28;20125;-78
2022/06/02 10:20:53;;;;;;;0.80;0.70;;;20.10;53.50;;;;;;4199587;28;20079;-78
2022/06/02 10:23:00;;;;;;;;;;;20.30;52.40;;;;;;4164976;28;20049;-78
2022/06/02 10:25:19;;;;;;;1.88;0.98;;;20.30;53.00;;;;;;4197508;28;19936;-78
2022/06/02 10:27:52;;;;;;;1.98;0.85;;;20.30;53.30;;;;;;4197537;28;20127;-77
2022/06/02 10:30:16;;;;;;;1.73;1.05;;;20.40;53.20;;;;;;4197919;28;20067;-78
2022/06/02 10:32:55;;;;;;;0.55;0.55;;;20.50;51.80;;;;;;4200354;28;20061;-78
2022/06/02 10:35:28;;;;;;;1.60;0.68;;;20.40;51.30;;;;;;4212447;28;20903;-79
2022/06/02 10:37:42;;;;;;;2.67;0.70;;;20.50;52.60;;;;;;4193715;28;20780;-79
2022/06/02 10:40:08;;;;;;;3.40;0.80;;;20.40;52.20;;;;;;4194531;28;20061;-78
2022/06/02 10:42:41;;;;;;;1.92;0.98;;;20.50;53.90;;;;;;4198606;28;20056;-77
2022/06/02 10:45:05;;;;;;;1.20;0.63;;;20.60;53.60;;;;;;4196022;28;20802;-77
2022/06/02 10:47:15;;;;;;;0.90;0.80;;;20.60;51.70;;;;;;4198971;28;20092;-78
2022/06/02 10:49:41;;;;;;;1.73;0.75;;;20.60;52.70;;;;;;4199247;28;21218;-78
2022/06/02 10:52:30;;;;;;;1.83;0.80;;;20.50;51.50;;;;;;4199818;28;20064;-78
2022/06/02 10:54:38;;;;;;;0.70;0.70;;;20.60;52.30;;;;;;4198903;28;20107;-78
2022/06/02 10:56:44;;;;;;;1.08;0.73;;;20.60;52.70;;;;;;4199394;28;20064;-77
2022/06/02 10:58:48;;;;;;;2.65;0.63;;;20.70;53.00;;;;;;4206362;28;20108;-77
2022/06/02 11:01:32;;;;;;;5.03;1.05;;;20.70;52.20;;;;;;4199265;28;20045;-79
2022/06/02 11:04:01;;;;;;;6.30;1.10;;;20.80;52.00;;;;;;4198191;28;20129;-77
2022/06/02 11:06:15;;;;;;;1.90;0.90;;;20.80;52.00;;;;;;4198871;28;20063;-78
2022/06/02 11:08:42;;;;;;;2.08;1.10;;;20.80;52.20;;;;;;4192981;28;20135;-78
2022/06/02 11:11:20;;;;;;;3.75;1.13;;;20.80;51.70;;;;;;4198040;28;20759;-78
2022/06/02 11:13:45;;;;;;;0.80;0.47;;;20.90;51.80;;;;;;4198779;28;20069;-79
2022/06/02 11:16:17;;;;;;;1.77;0.80;;;21.00;52.10;;;;;;4200000;28;20061;-78
2022/06/02 11:18:26;;;;;;;1.30;0.82;;;21.10;52.40;;;;;;4216363;22;20040;-76
2022/06/02 11:20:44;;;;;;;3.42;1.05;;;21.20;51.20;;;;;;4213112;28;20122;-77
2022/06/02 11:23:04;;;;;;;2.15;0.77;;;21.20;51.70;;;;;;4205316;28;20137;-75
2022/06/02 11:25:54;;;;;;;1.52;1.05;;;21.00;51.80;;;;;;4207491;28;20759;-75
2022/06/02 11:28:11;;;;;;;1.08;0.70;;;21.10;52.50;;;;;;4214089;28;20068;-75
2022/06/02 11:30:25;;;;;;;3.00;0.70;;;21.20;52.00;;;;;;4194254;28;20151;-75
2022/06/02 11:32:49;;;;;;;1.77;0.90;;;21.20;51.70;;;;;;4190246;28;20065;-76
2022/06/02 11:34:50;;;;;;;2.33;0.70;;;21.30;52.00;;;;;;4192121;28;20903;-76
2022/06/02 11:37:33;;;;;;;3.45;0.80;;;21.20;52.40;;;;;;4192529;28;20064;-76
2022/06/02 11:40:07;;;;;;;1.08;0.73;;;21.50;52.40;;;;;;4187264;28;20057;-76
2022/06/02 11:42:20;;;;;;;1.17;0.68;;;21.70;51.50;;;;;;4197449;28;20175;-75
2022/06/02 11:44:59;;;;;;;0.98;0.73;;;21.90;50.90;;;;;;4190356;28;20049;-76
2022/06/02 11:47:07;;;;;;;1.33;0.60;;;21.90;51.00;;;;;;4191938;28;20057;-76
2022/06/02 11:49:30;;;;;;;1.98;1.08;;;22.00;50.80;;;;;;4189913;28;20111;-76
2022/06/02 11:51:51;;;;;;;3.05;1.05;;;22.00;49.50;;;;;;4187413;28;20072;-76
2022/06/02 11:54:44;;;;;;;0.70;0.70;;;22.00;50.40;;;;;;4188680;28;20112;-76
2022/06/02 11:56:49;;;;;;;1.67;0.60;;;22.00;51.40;;;;;;4182950;28;20068;-77
2022/06/02 11:59:18;;;;;;;3.83;0.82;;;22.20;49.90;;;;;;4192522;28;20080;-77
2022/06/02 12:01:47;;;;;;;0.63;0.63;;;22.40;49.60;;;;;;4204527;28;20136;-75
2022/06/02 12:04:19;;;;;;;0.95;0.50;;;22.20;49.50;;;;;;4195847;28;20858;-77
2022/06/02 12:06:52;;;;;;;1.42;0.60;;;22.00;50.50;;;;;;4214125;28;20810;-76
2022/06/02 12:09:33;;;;;;;0.63;0.50;;;22.00;51.10;;;;;;4197212;28;20060;-76
2022/06/02 12:11:46;;;;;;;0.75;0.70;;;22.20;51.00;;;;;;4195804;28;20181;-78
2022/06/02 12:14:25;;;;;;;1.33;0.52;;;22.50;50.00;;;;;;4196695;28;20057;-76
2022/06/02 12:16:52;;;;;;;3.67;1.30;;;22.70;49.20;;;;;;4197506;28;21988;-76
2022/06/02 12:19:29;;;;;;;2.08;0.60;;;22.70;49.40;;;;;;4203818;28;20091;-75
2022/06/02 12:21:49;;;;;;;2.38;0.68;;;22.70;50.10;;;;;;4202237;28;20061;-77
2022/06/02 12:24:00;;;;;;;1.05;0.90;;;22.70;49.80;;;;;;4191987;28;20068;-75
2022/06/02 12:26:20;;;;;;;;;;;22.60;49.10;;;;;;4194432;28;20057;-77
2022/06/02 12:28:59;;;;;;;0.68;0.60;;;22.50;49.40;;;;;;4194420;28;20809;-75
2022/06/02 12:31:12;;;;;;;1.63;1.52;;;22.40;49.80;;;;;;4191312;28;20068;-76